Time;durP1;ratioP1;P1;durP2;ratioP2;P2;SDS_P1;SDS_P2;PMS_P1;PMS_P2;Temp;Humidity;BMP_temperature;BMP_pressure;BME280_temperature;BME280_humidity;BME280_pressure;Samples;Min_cycle;Max_cycle;Signal;HPM_P1;HPM_P2
2021/12/02 00:00:27;;;;;;;1.23;1.13;;;18.60;44.40;;;;;;5012429;28;20216;-54
2021/12/02 00:02:54;;;;;;;1.00;1.00;;;18.60;44.40;;;;;;5013411;28;20653;-54
2021/12/02 00:05:23;;;;;;;1.05;1.05;;;18.60;44.40;;;;;;5013188;28;20261;-54
2021/12/02 00:07:51;;;;;;;1.30;1.20;;;18.60;44.40;;;;;;5013199;28;20224;-54
2021/12/02 00:10:18;;;;;;;1.10;1.10;;;18.60;44.50;;;;;;4995365;28;20193;-54
2021/12/02 00:12:45;;;;;;;1.02;1.02;;;18.60;44.40;;;;;;5013215;28;20200;-54
2021/12/02 00:15:21;;;;;;;1.00;0.93;;;18.60;44.40;;;;;;4995405;28;20210;-54
2021/12/02 00:17:54;;;;;;;1.10;1.10;;;18.50;44.40;;;;;;4995387;28;20227;-54
2021/12/02 00:23:28;;;;;;;1.85;1.00;;;18.50;44.50;;;;;;5012974;28;20263;-55
2021/12/02 00:25:56;;;;;;;2.05;1.30;;;18.50;44.40;;;;;;5012867;28;20197;-54
2021/12/02 00:28:24;;;;;;;1.10;1.10;;;18.50;44.40;;;;;;5012768;28;20229;-54
2021/12/02 00:30:51;;;;;;;1.20;1.10;;;18.50;44.50;;;;;;5012887;28;20191;-54
2021/12/02 00:33:18;;;;;;;1.20;1.20;;;18.40;45.10;;;;;;5013181;28;20197;-54
2021/12/02 00:35:47;;;;;;;1.00;1.00;;;18.40;44.50;;;;;;4995493;28;20232;-54
2021/12/02 00:38:14;;;;;;;1.00;1.00;;;18.40;44.50;;;;;;4995913;28;20216;-54
2021/12/02 00:40:41;;;;;;;1.48;1.38;;;18.40;44.50;;;;;;5012886;28;20760;-54
2021/12/02 00:43:08;;;;;;;1.00;1.00;;;18.40;44.50;;;;;;5013883;28;20287;-54
2021/12/02 00:45:35;;;;;;;1.00;1.00;;;18.30;44.40;;;;;;5016769;28;20201;-54
2021/12/02 00:48:03;;;;;;;1.17;1.10;;;18.30;44.50;;;;;;4998762;28;20213;-54
2021/12/02 00:50:29;;;;;;;0.90;0.90;;;18.30;44.40;;;;;;5016357;28;20213;-54
2021/12/02 00:52:58;;;;;;;1.02;1.02;;;18.30;44.40;;;;;;5016264;28;20189;-54
2021/12/02 00:55:26;;;;;;;1.00;1.00;;;18.30;44.40;;;;;;5016490;28;20200;-54
2021/12/02 00:57:53;;;;;;;0.93;0.93;;;18.20;44.40;;;;;;4998521;28;20220;-54
2021/12/02 01:00:21;;;;;;;1.20;1.20;;;18.20;44.40;;;;;;5016129;28;20205;-53
2021/12/02 01:02:48;;;;;;;1.00;1.00;;;18.20;44.40;;;;;;5016041;28;20255;-54
2021/12/02 01:05:15;;;;;;;0.93;0.93;;;18.10;44.30;;;;;;5016148;28;20666;-54
2021/12/02 01:07:43;;;;;;;1.15;1.15;;;18.10;44.40;;;;;;4998372;28;20219;-54
2021/12/02 01:10:11;;;;;;;1.08;1.05;;;18.10;45.10;;;;;;5016077;28;20284;-53
2021/12/02 01:12:38;;;;;;;1.10;1.10;;;18.10;44.60;;;;;;5015984;28;20227;-54
2021/12/02 01:15:06;;;;;;;0.95;0.95;;;18.10;44.50;;;;;;5016120;28;20199;-54
2021/12/02 01:17:33;;;;;;;1.25;1.15;;;18.10;44.60;;;;;;5015917;28;20572;-54
2021/12/02 01:20:00;;;;;;;1.15;1.02;;;18.10;44.40;;;;;;4999024;28;20217;-54
2021/12/02 01:22:27;;;;;;;1.40;1.00;;;18.00;45.00;;;;;;4999240;28;20343;-54
2021/12/02 01:24:54;;;;;;;1.13;1.00;;;18.00;44.30;;;;;;4998912;28;20575;-54
2021/12/02 01:27:23;;;;;;;1.00;1.00;;;18.00;44.50;;;;;;5015903;28;20212;-54
2021/12/02 01:29:50;;;;;;;1.08;1.08;;;18.00;44.60;;;;;;5016135;28;20293;-54
2021/12/02 01:32:16;;;;;;;1.27;1.27;;;18.00;44.70;;;;;;5015850;28;20184;-55
2021/12/02 01:34:44;;;;;;;1.00;1.00;;;18.00;44.60;;;;;;5015841;28;20193;-55
2021/12/02 01:37:11;;;;;;;1.10;1.10;;;17.90;44.60;;;;;;4997957;28;20677;-54
2021/12/02 01:39:38;;;;;;;0.90;0.90;;;17.90;44.60;;;;;;5017010;28;20201;-54
2021/12/02 01:42:05;;;;;;;1.20;1.20;;;17.90;44.70;;;;;;5015556;28;20185;-54
2021/12/02 01:44:34;;;;;;;1.20;1.10;;;17.80;44.70;;;;;;5015638;28;20276;-54
2021/12/02 01:47:01;;;;;;;1.20;1.10;;;17.80;44.70;;;;;;4997608;28;20307;-54
2021/12/02 01:49:30;;;;;;;1.23;1.20;;;17.80;44.70;;;;;;5015413;28;20289;-54
2021/12/02 01:52:40;;;;;;;1.10;1.10;;;17.80;44.90;;;;;;5015074;28;20250;-54
2021/12/02 01:55:09;;;;;;;1.00;1.00;;;17.80;45.00;;;;;;5014467;28;20181;-54
2021/12/02 01:57:37;;;;;;;1.00;1.00;;;17.80;44.90;;;;;;5015169;28;20319;-55
2021/12/02 02:00:09;;;;;;;1.10;1.10;;;17.80;45.10;;;;;;5014745;28;20229;-54
2021/12/02 02:02:39;;;;;;;1.20;1.20;;;17.70;45.00;;;;;;5014947;28;20667;-54
2021/12/02 02:05:10;;;;;;;1.00;1.00;;;17.70;45.10;;;;;;4998180;28;20197;-55
2021/12/02 02:07:37;;;;;;;1.00;1.00;;;17.70;45.30;;;;;;5015032;28;20217;-54
2021/12/02 02:10:07;;;;;;;1.10;1.10;;;17.70;45.40;;;;;;5014956;28;20279;-55
2021/12/02 02:12:34;;;;;;;0.90;0.90;;;17.70;45.30;;;;;;5011376;23;20241;-67
2021/12/02 02:15:02;;;;;;;1.17;1.08;;;17.70;45.20;;;;;;4996788;28;20221;-67
2021/12/02 02:17:36;;;;;;;1.20;1.20;;;17.70;45.40;;;;;;5014678;28;20230;-67
2021/12/02 02:20:05;;;;;;;1.00;1.00;;;17.60;45.90;;;;;;4996733;28;20219;-67
2021/12/02 02:22:33;;;;;;;1.00;1.00;;;17.60;45.20;;;;;;5014423;28;20219;-68
2021/12/02 02:25:01;;;;;;;1.00;1.00;;;17.60;45.50;;;;;;5015021;28;20262;-67
2021/12/02 02:27:28;;;;;;;1.15;1.13;;;17.60;45.40;;;;;;4996672;28;20193;-67
2021/12/02 02:29:55;;;;;;;1.20;1.10;;;17.60;45.40;;;;;;5014162;28;20200;-67
2021/12/02 02:32:26;;;;;;;1.00;1.00;;;17.60;45.50;;;;;;5014419;28;20204;-67
2021/12/02 02:34:53;;;;;;;1.10;1.10;;;17.60;45.50;;;;;;4996546;28;20220;-67
2021/12/02 02:37:20;;;;;;;0.95;0.95;;;17.60;45.40;;;;;;4996603;28;20211;-67
2021/12/02 02:39:48;;;;;;;2.15;1.20;;;17.50;45.50;;;;;;4996409;28;20616;-67
2021/12/02 02:42:21;;;;;;;0.98;0.98;;;17.50;45.40;;;;;;4996747;28;20223;-67
2021/12/02 02:44:48;;;;;;;1.00;1.00;;;17.50;45.50;;;;;;4996642;28;20224;-67
2021/12/02 02:47:15;;;;;;;1.00;1.00;;;17.50;45.30;;;;;;5014103;28;20568;-67
2021/12/02 02:49:42;;;;;;;1.02;1.02;;;17.50;45.40;;;;;;5013817;28;20192;-67
2021/12/02 02:52:09;;;;;;;1.20;1.00;;;17.40;45.30;;;;;;4996221;28;20283;-67
2021/12/02 02:54:36;;;;;;;0.90;0.90;;;17.40;45.40;;;;;;5013977;28;20251;-67
2021/12/02 02:57:07;;;;;;;1.05;1.05;;;17.50;45.40;;;;;;4996245;28;20201;-67
2021/12/02 02:59:40;;;;;;;1.10;1.10;;;17.50;45.40;;;;;;5013910;28;20258;-67
2021/12/02 03:02:15;;;;;;;1.10;1.10;;;17.40;45.30;;;;;;5013898;28;20213;-67
2021/12/02 03:04:47;;;;;;;1.00;1.00;;;17.40;45.40;;;;;;5013613;28;20734;-67
2021/12/02 03:07:21;;;;;;;1.10;1.00;;;17.50;46.10;;;;;;5013660;28;20178;-67
2021/12/02 03:09:56;;;;;;;1.00;1.00;;;17.40;45.40;;;;;;4995890;28;20185;-67
2021/12/02 03:12:28;;;;;;;1.20;1.10;;;17.40;45.40;;;;;;4995776;28;20212;-67
2021/12/02 03:17:41;;;;;;;1.27;1.15;;;17.40;45.40;;;;;;5010084;23;20263;-69
2021/12/02 03:20:09;;;;;;;1.13;1.10;;;17.40;45.30;;;;;;4995588;28;20193;-69
2021/12/02 03:22:36;;;;;;;1.20;1.20;;;17.40;45.40;;;;;;4995694;28;20197;-70
2021/12/02 03:25:04;;;;;;;1.60;1.00;;;17.40;45.40;;;;;;5013174;28;20262;-70
2021/12/02 03:27:32;;;;;;;1.15;1.15;;;17.30;45.30;;;;;;4995649;28;20207;-69
2021/12/02 03:30:01;;;;;;;1.05;1.05;;;17.30;45.40;;;;;;4995814;28;20205;-70
2021/12/02 03:32:28;;;;;;;1.60;1.00;;;17.20;45.30;;;;;;5013306;28;20195;-69
2021/12/02 03:34:55;;;;;;;1.10;1.00;;;17.30;45.40;;;;;;4995889;28;20217;-70
2021/12/02 03:37:23;;;;;;;1.30;1.17;;;17.30;45.50;;;;;;4995445;28;20197;-69
2021/12/02 03:39:49;;;;;;;1.00;1.00;;;17.20;45.40;;;;;;4995724;28;20216;-70
2021/12/02 03:42:16;;;;;;;1.10;1.10;;;17.20;45.30;;;;;;4995232;28;20684;-69
2021/12/02 03:44:45;;;;;;;1.50;1.20;;;17.20;45.50;;;;;;4995408;28;20240;-69
2021/12/02 03:47:12;;;;;;;1.17;1.17;;;17.20;45.60;;;;;;4995577;28;20207;-70
2021/12/02 03:49:40;;;;;;;1.40;1.00;;;17.10;45.50;;;;;;4995376;28;20200;-70
2021/12/02 03:52:08;;;;;;;1.10;1.10;;;17.10;45.70;;;;;;5012967;28;20203;-70
2021/12/02 03:54:35;;;;;;;1.08;1.08;;;17.10;45.60;;;;;;4995367;28;20224;-70
2021/12/02 03:57:03;;;;;;;1.00;1.00;;;17.10;45.70;;;;;;4995609;28;20695;-70
2021/12/02 03:59:32;;;;;;;1.10;1.10;;;17.10;45.70;;;;;;4995225;28;20223;-70
2021/12/02 04:02:00;;;;;;;1.05;1.05;;;17.00;45.80;;;;;;4995153;28;20212;-70
2021/12/02 04:04:28;;;;;;;1.17;1.10;;;17.10;45.70;;;;;;4995433;28;20227;-70
2021/12/02 04:06:55;;;;;;;1.05;1.05;;;17.00;45.80;;;;;;5012876;28;20276;-70
2021/12/02 04:09:24;;;;;;;1.20;1.10;;;17.00;45.80;;;;;;4996128;28;20214;-69
2021/12/02 04:11:57;;;;;;;0.90;0.90;;;17.00;45.70;;;;;;4997721;28;20200;-70
2021/12/02 04:14:26;;;;;;;1.10;1.10;;;17.00;46.00;;;;;;4995366;28;20227;-70
2021/12/02 04:16:56;;;;;;;0.98;0.98;;;16.90;46.00;;;;;;4995036;28;20263;-70
2021/12/02 04:19:25;;;;;;;1.00;1.00;;;17.00;46.10;;;;;;5015548;28;20227;-70
2021/12/02 04:21:52;;;;;;;1.00;1.00;;;16.90;46.40;;;;;;4998971;28;20256;-70
2021/12/02 04:24:19;;;;;;;1.15;1.00;;;17.00;46.00;;;;;;4998806;28;20225;-70
2021/12/02 04:26:47;;;;;;;1.02;1.02;;;17.00;46.60;;;;;;5016565;28;20659;-70
2021/12/02 04:29:14;;;;;;;1.00;1.00;;;17.00;45.80;;;;;;4999278;28;20204;-69
2021/12/02 04:31:42;;;;;;;1.00;1.00;;;17.00;45.80;;;;;;4998757;28;20197;-70
2021/12/02 04:34:09;;;;;;;1.20;1.10;;;17.00;45.70;;;;;;5016265;28;20233;-70
2021/12/02 04:36:38;;;;;;;1.30;1.20;;;17.00;45.70;;;;;;4998682;28;20228;-70
2021/12/02 04:39:05;;;;;;;0.93;0.93;;;17.00;45.50;;;;;;4998592;28;20577;-70
2021/12/02 04:41:32;;;;;;;1.33;1.10;;;17.10;45.60;;;;;;5016134;28;20693;-70
2021/12/02 04:43:59;;;;;;;1.08;1.08;;;17.10;45.60;;;;;;4998485;28;20216;-70
2021/12/02 04:46:26;;;;;;;0.90;0.90;;;17.10;45.50;;;;;;5016150;28;20211;-69
2021/12/02 04:48:54;;;;;;;0.90;0.90;;;17.10;45.40;;;;;;4998538;28;20203;-70
2021/12/02 04:51:20;;;;;;;1.20;1.10;;;17.10;45.40;;;;;;4998563;28;20192;-70
2021/12/02 04:53:49;;;;;;;1.10;1.10;;;17.10;45.90;;;;;;5016023;28;20193;-67
2021/12/02 04:56:16;;;;;;;1.17;1.10;;;17.10;45.20;;;;;;4998212;28;20208;-70
2021/12/02 04:58:43;;;;;;;1.02;0.95;;;17.20;45.40;;;;;;4998218;28;20651;-70
2021/12/02 05:01:10;;;;;;;1.77;1.10;;;17.10;45.20;;;;;;4998237;28;20212;-70
2021/12/02 05:03:38;;;;;;;1.00;1.00;;;17.20;45.30;;;;;;5015814;28;20284;-70
2021/12/02 05:06:05;;;;;;;1.20;1.10;;;17.20;45.30;;;;;;4998180;28;20665;-70
2021/12/02 05:08:32;;;;;;;0.93;0.90;;;17.20;45.30;;;;;;5016013;28;20685;-69
2021/12/02 05:11:00;;;;;;;1.02;1.02;;;17.20;45.30;;;;;;4998277;28;20302;-70
2021/12/02 05:13:27;;;;;;;1.27;1.20;;;17.20;45.20;;;;;;4998075;28;20203;-70
2021/12/02 05:15:54;;;;;;;1.10;1.10;;;17.20;45.20;;;;;;4997839;28;20224;-70
2021/12/02 05:18:21;;;;;;;0.98;0.98;;;17.20;45.20;;;;;;5015593;28;20231;-70
2021/12/02 05:20:48;;;;;;;0.90;0.90;;;17.30;45.20;;;;;;5015388;28;20275;-70
2021/12/02 05:23:15;;;;;;;1.20;1.00;;;17.30;45.30;;;;;;4997948;28;20250;-70
2021/12/02 05:25:44;;;;;;;1.25;1.15;;;17.30;45.30;;;;;;5040900;22;20609;-64
2021/12/02 05:28:12;;;;;;;1.10;1.10;;;17.30;45.90;;;;;;4998228;28;20220;-65
2021/12/02 05:30:39;;;;;;;1.20;1.10;;;17.40;45.20;;;;;;5014226;28;20205;-65
2021/12/02 05:33:06;;;;;;;1.80;1.10;;;17.40;45.20;;;;;;4998108;28;20589;-64
2021/12/02 05:35:33;;;;;;;0.90;0.90;;;17.30;45.20;;;;;;4998152;28;20229;-64
2021/12/02 05:38:01;;;;;;;1.00;1.00;;;17.30;45.10;;;;;;4997967;28;20287;-66
2021/12/02 05:40:28;;;;;;;1.10;1.10;;;17.40;45.20;;;;;;5015335;28;20201;-65
2021/12/02 05:42:55;;;;;;;1.00;1.00;;;17.40;45.00;;;;;;5015363;28;20211;-63
2021/12/02 05:45:24;;;;;;;1.10;1.10;;;17.40;44.90;;;;;;4997667;28;20224;-63
2021/12/02 05:47:51;;;;;;;1.05;1.05;;;17.50;44.90;;;;;;4997793;28;20211;-65
2021/12/02 05:50:18;;;;;;;1.10;1.10;;;17.40;44.90;;;;;;4997643;28;20213;-64
2021/12/02 05:52:45;;;;;;;1.00;1.00;;;17.50;44.80;;;;;;4997334;28;20189;-63
2021/12/02 05:55:12;;;;;;;1.05;1.00;;;17.50;44.80;;;;;;5015131;28;20212;-62
2021/12/02 05:57:40;;;;;;;0.90;0.90;;;17.50;44.70;;;;;;4997332;28;20236;-65
2021/12/02 06:00:08;;;;;;;0.93;0.93;;;17.50;44.70;;;;;;4997301;28;20291;-63
2021/12/02 06:02:43;;;;;;;1.00;1.00;;;17.50;44.60;;;;;;5015028;28;20208;-66
2021/12/02 06:05:10;;;;;;;1.00;1.00;;;17.50;44.70;;;;;;4997151;28;20263;-66
2021/12/02 06:07:37;;;;;;;1.70;1.23;;;17.60;44.60;;;;;;4998480;28;20316;-63
2021/12/02 06:10:05;;;;;;;1.20;1.10;;;17.60;44.40;;;;;;4998972;28;20203;-66
2021/12/02 06:12:32;;;;;;;1.20;1.10;;;17.60;44.50;;;;;;4997138;28;20197;-67
2021/12/02 06:14:59;;;;;;;1.10;1.00;;;17.60;44.30;;;;;;5014886;28;20205;-65
2021/12/02 06:17:27;;;;;;;1.30;1.20;;;17.70;45.00;;;;;;5014729;28;20224;-64
2021/12/02 06:19:55;;;;;;;1.30;1.20;;;17.70;44.90;;;;;;5015220;28;20271;-66
2021/12/02 06:22:22;;;;;;;1.20;1.10;;;17.70;45.60;;;;;;4996865;28;20417;-67
2021/12/02 06:25:05;;;;;;;1.00;1.00;;;17.70;45.50;;;;;;4996658;28;20239;-63
2021/12/02 06:27:32;;;;;;;0.90;0.90;;;17.70;46.20;;;;;;4998916;28;20641;-64
2021/12/02 06:29:59;;;;;;;1.02;1.02;;;17.70;45.70;;;;;;4996885;28;20251;-63
2021/12/02 06:32:26;;;;;;;1.10;1.10;;;17.80;45.80;;;;;;4996817;28;20193;-66
2021/12/02 06:34:55;;;;;;;1.17;1.08;;;17.80;45.80;;;;;;4996679;28;20315;-65
2021/12/02 06:37:22;;;;;;;1.20;1.20;;;17.80;45.60;;;;;;4996705;28;20216;-63
2021/12/02 06:39:50;;;;;;;1.10;1.10;;;17.80;45.30;;;;;;5015382;28;20656;-63
2021/12/02 06:42:17;;;;;;;1.00;1.00;;;17.80;45.80;;;;;;5013582;28;20259;-66
2021/12/02 06:44:44;;;;;;;1.92;0.90;;;17.80;45.70;;;;;;4996328;28;20601;-66
2021/12/02 06:47:11;;;;;;;1.05;1.05;;;17.80;45.30;;;;;;4996277;28;20673;-64
2021/12/02 06:49:40;;;;;;;1.05;1.05;;;17.90;45.20;;;;;;4996482;28;20292;-66
2021/12/02 06:52:11;;;;;;;2.03;1.10;;;17.90;46.10;;;;;;4996484;28;20224;-65
2021/12/02 06:54:39;;;;;;;3.28;1.00;;;17.90;45.00;;;;;;4996062;28;20240;-67
2021/12/02 06:57:06;;;;;;;1.10;1.10;;;17.90;45.10;;;;;;4996219;28;20570;-66
2021/12/02 06:59:35;;;;;;;1.55;1.30;;;17.90;45.10;;;;;;4995858;28;20266;-65
2021/12/02 07:02:02;;;;;;;0.93;0.93;;;17.90;45.00;;;;;;4995786;28;20719;-63
2021/12/02 07:04:29;;;;;;;1.02;1.02;;;17.90;45.10;;;;;;4995771;28;20232;-65
2021/12/02 07:06:56;;;;;;;1.00;1.00;;;17.90;45.30;;;;;;4995516;28;20204;-64
2021/12/02 07:09:24;;;;;;;1.00;1.00;;;17.90;45.00;;;;;;4995686;28;20197;-64
2021/12/02 07:11:52;;;;;;;1.00;1.00;;;17.90;45.10;;;;;;4995624;28;20199;-66
2021/12/02 07:14:20;;;;;;;0.93;0.90;;;17.90;45.10;;;;;;4995495;28;20232;-65
2021/12/02 07:16:47;;;;;;;1.17;1.00;;;17.90;45.00;;;;;;5013630;28;20715;-64
2021/12/02 07:19:15;;;;;;;1.00;1.00;;;17.90;44.90;;;;;;5013380;28;20561;-65
2021/12/02 07:21:42;;;;;;;1.00;1.00;;;17.90;44.60;;;;;;5013648;28;20215;-66
2021/12/02 07:24:13;;;;;;;1.20;1.00;;;17.90;44.30;;;;;;4995849;28;20273;-66
2021/12/02 07:26:43;;;;;;;1.00;1.00;;;17.90;44.20;;;;;;4995902;28;20200;-66
2021/12/02 07:29:10;;;;;;;1.10;1.10;;;17.90;44.10;;;;;;4995695;28;20235;-66
2021/12/02 07:31:37;;;;;;;1.25;1.15;;;17.90;44.10;;;;;;4995759;28;20295;-63
2021/12/02 07:34:05;;;;;;;1.20;1.20;;;17.90;44.10;;;;;;5013284;28;20224;-64
2021/12/02 07:36:32;;;;;;;1.00;1.00;;;17.90;44.10;;;;;;4995866;28;20579;-66
2021/12/02 07:39:01;;;;;;;0.95;0.95;;;18.00;44.70;;;;;;4995568;28;20213;-65
2021/12/02 07:41:27;;;;;;;1.00;1.00;;;18.00;44.10;;;;;;4995495;28;20574;-62
2021/12/02 07:43:56;;;;;;;1.23;1.13;;;18.00;44.00;;;;;;5012951;28;20217;-64
2021/12/02 07:46:23;;;;;;;1.30;1.20;;;18.00;44.00;;;;;;4995551;28;20223;-66
2021/12/02 07:48:52;;;;;;;1.20;1.10;;;18.00;43.80;;;;;;4995376;28;20683;-65
2021/12/02 07:51:20;;;;;;;1.20;1.10;;;18.00;43.90;;;;;;4995629;28;20713;-63
2021/12/02 07:53:48;;;;;;;1.00;1.00;;;18.00;43.90;;;;;;5012401;28;20589;-65
2021/12/02 07:56:17;;;;;;;1.65;1.10;;;18.00;43.80;;;;;;4995367;28;20224;-67
2021/12/02 07:58:45;;;;;;;1.20;1.10;;;18.00;43.80;;;;;;4995601;28;20706;-66
2021/12/02 08:01:15;;;;;;;1.08;1.00;;;18.00;43.70;;;;;;4995710;28;20736;-66
2021/12/02 08:03:44;;;;;;;1.00;1.00;;;18.00;43.70;;;;;;5012967;28;20649;-66
2021/12/02 08:06:12;;;;;;;1.10;1.10;;;18.00;43.60;;;;;;4995257;28;20299;-64
2021/12/02 08:08:39;;;;;;;1.15;1.10;;;18.00;43.60;;;;;;4995307;28;20645;-62
2021/12/02 08:11:06;;;;;;;1.10;1.10;;;18.00;43.60;;;;;;4995513;28;20203;-67
2021/12/02 08:13:34;;;;;;;1.25;1.15;;;18.10;43.80;;;;;;4995631;28;20242;-66
2021/12/02 08:16:01;;;;;;;1.27;1.17;;;18.10;43.70;;;;;;4995643;28;20251;-63
2021/12/02 08:18:30;;;;;;;1.30;1.20;;;18.10;43.70;;;;;;4996514;28;20219;-64
2021/12/02 08:20:58;;;;;;;1.10;1.00;;;18.10;43.50;;;;;;4996087;28;20299;-66
2021/12/02 08:23:26;;;;;;;1.17;1.15;;;18.00;43.40;;;;;;5013311;28;20263;-66
2021/12/02 08:25:53;;;;;;;1.00;1.00;;;18.10;43.60;;;;;;4995340;28;20279;-65
2021/12/02 08:28:20;;;;;;;2.28;1.10;;;18.10;43.50;;;;;;4995647;28;20200;-63
2021/12/02 08:30:49;;;;;;;1.30;1.20;;;18.10;43.50;;;;;;4995101;28;20201;-65
2021/12/02 08:33:18;;;;;;;0.93;0.93;;;18.10;43.40;;;;;;4995059;28;20295;-66
2021/12/02 08:35:47;;;;;;;1.17;1.17;;;18.10;43.40;;;;;;4995163;28;20225;-65
2021/12/02 08:38:16;;;;;;;1.20;1.10;;;18.20;43.40;;;;;;4995024;28;20201;-63
2021/12/02 08:40:44;;;;;;;1.23;1.13;;;18.10;43.50;;;;;;5012388;28;20221;-64
2021/12/02 08:43:12;;;;;;;1.63;1.20;;;18.20;43.50;;;;;;5012359;28;20205;-64
2021/12/02 08:45:41;;;;;;;1.20;1.10;;;18.20;43.50;;;;;;5012431;28;20213;-66
2021/12/02 08:48:08;;;;;;;1.33;1.23;;;18.20;43.40;;;;;;4994662;28;20207;-66
2021/12/02 08:50:36;;;;;;;1.10;1.10;;;18.20;43.50;;;;;;4994678;28;20287;-63
2021/12/02 08:53:04;;;;;;;1.33;1.23;;;18.20;44.00;;;;;;4994850;28;20741;-62
2021/12/02 08:55:32;;;;;;;1.38;1.10;;;18.20;43.50;;;;;;4994490;28;20220;-65
2021/12/02 08:58:00;;;;;;;1.20;1.20;;;18.20;43.30;;;;;;4994709;28;20816;-66
2021/12/02 09:00:33;;;;;;;1.20;1.20;;;18.30;43.30;;;;;;5012362;28;20277;-64
2021/12/02 09:03:00;;;;;;;1.27;1.17;;;18.30;43.30;;;;;;4994435;28;20311;-66
2021/12/02 09:05:27;;;;;;;1.20;1.10;;;18.30;43.20;;;;;;4996903;28;20222;-64
2021/12/02 09:07:55;;;;;;;1.10;1.10;;;18.30;43.10;;;;;;4998081;28;20251;-63
2021/12/02 09:10:25;;;;;;;1.20;1.20;;;18.40;43.30;;;;;;4998075;28;20268;-66
2021/12/02 09:12:53;;;;;;;1.20;1.20;;;18.30;43.10;;;;;;4997823;28;20199;-66
2021/12/02 09:15:20;;;;;;;2.38;1.20;;;18.30;43.00;;;;;;5015507;28;20213;-66
2021/12/02 09:17:47;;;;;;;1.13;1.13;;;18.30;42.90;;;;;;4997997;28;20200;-65
2021/12/02 09:20:15;;;;;;;1.20;1.20;;;18.40;42.90;;;;;;4997960;28;20621;-67
2021/12/02 09:22:42;;;;;;;1.20;1.20;;;18.40;42.90;;;;;;4998749;28;20223;-67
2021/12/02 09:25:10;;;;;;;1.10;1.10;;;18.40;42.90;;;;;;4998308;28;20279;-65
2021/12/02 09:27:39;;;;;;;1.33;1.10;;;18.40;42.80;;;;;;5016177;28;20193;-65
2021/12/02 09:30:06;;;;;;;1.73;1.40;;;18.50;42.80;;;;;;4998103;28;20200;-64
2021/12/02 09:32:34;;;;;;;1.20;1.20;;;18.50;42.70;;;;;;5015121;28;20200;-66
2021/12/02 09:35:01;;;;;;;1.20;1.20;;;18.50;42.80;;;;;;4997416;28;20221;-64
2021/12/02 09:37:29;;;;;;;1.58;1.20;;;18.50;42.60;;;;;;4997557;28;20201;-65
2021/12/02 09:39:56;;;;;;;1.00;1.00;;;18.50;42.70;;;;;;4997187;28;20273;-66
2021/12/02 09:42:23;;;;;;;1.25;1.23;;;18.50;42.60;;;;;;4997589;28;20212;-66
2021/12/02 09:44:55;;;;;;;1.40;1.30;;;18.60;42.70;;;;;;5000745;28;20259;-65
2021/12/02 09:47:22;;;;;;;1.50;1.40;;;18.60;42.70;;;;;;5003273;28;20223;-65
2021/12/02 09:49:50;;;;;;;1.48;1.40;;;18.60;42.70;;;;;;4997742;28;20201;-65
2021/12/02 09:52:19;;;;;;;1.20;1.20;;;18.60;42.60;;;;;;4998631;28;20610;-67
2021/12/02 09:54:53;;;;;;;1.40;1.38;;;18.60;42.50;;;;;;4998452;28;20212;-67
2021/12/02 09:57:26;;;;;;;1.60;1.50;;;18.60;42.60;;;;;;4998467;28;20201;-62
2021/12/02 09:59:56;;;;;;;1.35;1.30;;;18.60;42.70;;;;;;5015820;28;20192;-65
2021/12/02 10:02:24;;;;;;;1.98;1.60;;;18.60;42.60;;;;;;4996987;28;20661;-66
2021/12/02 10:04:55;;;;;;;1.50;1.40;;;18.60;42.60;;;;;;4996946;28;20240;-63
2021/12/02 10:07:28;;;;;;;1.30;1.30;;;18.60;42.70;;;;;;4996830;28;20193;-65
2021/12/02 10:10:02;;;;;;;1.40;1.30;;;18.60;42.70;;;;;;4997094;28;20219;-66
2021/12/02 10:12:30;;;;;;;1.40;1.30;;;18.60;42.80;;;;;;4996899;28;20283;-65
2021/12/02 10:15:01;;;;;;;1.30;1.20;;;18.60;42.70;;;;;;4996658;28;20303;-63
2021/12/02 10:17:32;;;;;;;1.25;1.15;;;18.60;42.70;;;;;;4996127;28;20200;-63
2021/12/02 10:20:02;;;;;;;1.50;1.40;;;18.60;42.70;;;;;;5014424;28;20173;-64
2021/12/02 10:22:29;;;;;;;1.70;1.30;;;18.60;42.80;;;;;;4996755;28;20189;-63
2021/12/02 10:24:56;;;;;;;1.42;1.33;;;18.60;42.60;;;;;;4996339;28;20727;-65
2021/12/02 10:27:24;;;;;;;1.50;1.40;;;18.60;42.70;;;;;;4996481;28;20199;-66
2021/12/02 10:29:51;;;;;;;1.80;1.20;;;18.60;42.70;;;;;;4996697;28;20196;-65
2021/12/02 10:32:21;;;;;;;1.05;1.05;;;18.60;42.60;;;;;;4996420;28;20203;-64
2021/12/02 10:34:49;;;;;;;1.10;1.10;;;18.60;42.50;;;;;;4996381;28;20221;-63
2021/12/02 10:37:18;;;;;;;1.15;1.15;;;18.60;42.50;;;;;;4996493;28;20201;-66
2021/12/02 10:39:55;;;;;;;1.63;1.33;;;18.60;42.50;;;;;;5014272;28;20558;-67
2021/12/02 10:42:22;;;;;;;1.10;1.10;;;18.50;42.40;;;;;;4996387;28;20204;-64
2021/12/02 10:44:50;;;;;;;1.20;1.10;;;18.50;42.50;;;;;;4996806;28;20227;-65
2021/12/02 10:47:19;;;;;;;1.17;1.15;;;18.50;42.50;;;;;;4996261;28;20204;-66
2021/12/02 10:49:48;;;;;;;1.40;1.30;;;18.50;42.40;;;;;;4996335;28;20416;-66
2021/12/02 10:52:16;;;;;;;1.20;1.10;;;18.50;42.50;;;;;;4996347;28;20619;-65
2021/12/02 10:54:44;;;;;;;1.13;1.13;;;18.50;42.40;;;;;;4996138;28;20220;-63
2021/12/02 10:57:12;;;;;;;1.17;1.13;;;18.60;43.10;;;;;;4996378;28;20292;-64
2021/12/02 10:59:48;;;;;;;1.17;1.10;;;18.50;42.40;;;;;;5013907;28;20189;-66
2021/12/02 11:02:25;;;;;;;1.10;1.10;;;18.60;42.50;;;;;;5014073;28;20303;-63
2021/12/02 11:04:55;;;;;;;1.30;1.20;;;18.60;42.50;;;;;;4996504;28;20631;-66
2021/12/02 11:07:24;;;;;;;1.45;1.35;;;18.50;42.40;;;;;;5013947;28;20192;-64
2021/12/02 11:09:52;;;;;;;1.40;1.30;;;18.60;42.40;;;;;;4996853;28;20205;-66
2021/12/02 11:12:21;;;;;;;1.20;1.20;;;18.60;42.50;;;;;;5014767;28;20653;-65
2021/12/02 11:15:06;;;;;;;1.20;1.20;;;18.50;43.20;;;;;;4996668;28;20215;-64
2021/12/02 11:17:38;;;;;;;1.40;1.30;;;18.60;42.40;;;;;;4996530;28;20196;-66
2021/12/02 11:20:07;;;;;;;1.50;1.40;;;18.50;42.40;;;;;;4996449;28;20656;-65
2021/12/02 11:22:35;;;;;;;1.10;1.10;;;18.50;42.40;;;;;;4996414;28;20193;-67
2021/12/02 11:25:02;;;;;;;1.00;1.00;;;18.50;42.40;;;;;;5014202;22;20207;-68
2021/12/02 11:27:31;;;;;;;1.17;1.13;;;18.50;42.40;;;;;;5032890;28;20183;-68
2021/12/02 11:30:00;;;;;;;1.30;1.30;;;18.50;42.40;;;;;;5015068;28;20196;-69
2021/12/02 11:32:40;;;;;;;1.10;1.10;;;18.50;42.40;;;;;;5032999;28;20210;-69
2021/12/02 11:35:12;;;;;;;0.98;0.98;;;18.50;42.40;;;;;;5010161;28;20216;-69
2021/12/02 11:37:40;;;;;;;1.30;1.20;;;18.50;42.40;;;;;;4995435;28;20548;-69
2021/12/02 11:40:09;;;;;;;1.10;1.10;;;18.50;42.30;;;;;;4995381;28;20605;-69
2021/12/02 11:42:38;;;;;;;1.10;1.10;;;18.50;42.40;;;;;;4995332;28;20224;-69
2021/12/02 11:45:06;;;;;;;1.20;1.10;;;18.50;42.40;;;;;;4995147;28;20228;-69
2021/12/02 11:47:34;;;;;;;1.00;1.00;;;18.50;42.30;;;;;;5013070;28;20242;-69
2021/12/02 11:50:03;;;;;;;1.10;1.10;;;18.50;42.20;;;;;;4995610;28;20201;-69
2021/12/02 11:52:30;;;;;;;1.33;1.33;;;18.50;42.20;;;;;;4995313;28;20201;-69
2021/12/02 11:54:59;;;;;;;1.10;1.10;;;18.50;42.20;;;;;;4995136;28;20208;-69
2021/12/02 11:57:27;;;;;;;1.33;1.23;;;18.50;42.80;;;;;;4995313;28;20203;-68
2021/12/02 11:59:54;;;;;;;1.30;1.20;;;18.60;42.20;;;;;;4995315;28;20208;-68
2021/12/02 12:02:22;;;;;;;1.17;1.17;;;18.60;42.00;;;;;;4995204;28;20207;-69
2021/12/02 12:04:54;;;;;;;1.00;1.00;;;18.60;42.10;;;;;;4995261;28;20221;-68
2021/12/02 12:07:25;;;;;;;1.20;1.20;;;18.60;42.10;;;;;;5013140;28;20181;-69
2021/12/02 12:10:26;;;;;;;1.40;1.30;;;18.60;42.00;;;;;;4995522;28;20208;-69
2021/12/02 12:12:55;;;;;;;1.50;1.30;;;18.60;42.20;;;;;;4995138;28;20727;-69
2021/12/02 12:15:33;;;;;;;1.05;1.05;;;18.60;42.00;;;;;;4995382;28;20216;-69
2021/12/02 12:18:00;;;;;;;1.38;1.20;;;18.60;42.20;;;;;;5012644;28;20247;-69
2021/12/02 12:21:00;;;;;;;1.25;1.23;;;18.60;42.70;;;;;;4995034;28;20592;-69
2021/12/02 12:23:40;;;;;;;1.20;1.20;;;18.60;42.10;;;;;;5012386;28;20282;-69
2021/12/02 12:26:18;;;;;;;1.10;1.10;;;18.60;42.20;;;;;;5012656;28;20216;-68
2021/12/02 12:29:17;;;;;;;1.80;1.30;;;18.60;42.10;;;;;;4995250;28;20211;-69
2021/12/02 12:32:35;;;;;;;1.20;1.20;;;18.60;42.10;;;;;;4995125;28;20192;-68
2021/12/02 12:35:09;;;;;;;1.10;1.10;;;18.60;42.20;;;;;;5012821;28;20219;-69
2021/12/02 12:37:54;;;;;;;1.00;1.00;;;18.60;42.10;;;;;;4994851;28;20613;-68
2021/12/02 12:40:49;;;;;;;1.25;1.20;;;18.70;42.20;;;;;;4997707;28;20197;-68
2021/12/02 12:43:34;;;;;;;1.10;1.10;;;18.70;42.00;;;;;;5008508;28;20258;-68
2021/12/02 12:46:30;;;;;;;1.20;1.20;;;18.70;42.10;;;;;;5016240;28;20223;-69
2021/12/02 12:48:58;;;;;;;1.10;1.10;;;18.70;42.20;;;;;;4998587;28;20193;-68
2021/12/02 12:51:30;;;;;;;1.20;1.20;;;18.70;41.90;;;;;;4998463;28;20212;-69
2021/12/02 12:53:58;;;;;;;1.20;1.20;;;18.70;41.90;;;;;;4998630;28;20193;-68
2021/12/02 12:56:34;;;;;;;1.33;1.25;;;18.70;42.00;;;;;;4998092;28;20303;-68
2021/12/02 12:59:18;;;;;;;1.25;1.20;;;18.70;42.00;;;;;;4998625;28;20185;-69
2021/12/02 13:01:55;;;;;;;1.25;1.25;;;18.70;41.90;;;;;;5016043;28;20192;-69
2021/12/02 13:04:24;;;;;;;1.30;1.20;;;18.70;41.80;;;;;;5015884;28;20319;-69